createdAt,value
2018-08-16T00:01:45.943Z,4.90
2018-08-16T00:04:21.519Z,4.83
2018-08-16T00:06:51.276Z,5.70
2018-08-16T00:09:28.561Z,5.17
2018-08-16T00:11:58.685Z,5.70
2018-08-16T00:14:28.261Z,5.00
2018-08-16T00:16:58.878Z,5.17
2018-08-16T00:19:33.680Z,5.60
2018-08-16T00:22:03.299Z,5.40
2018-08-16T00:24:34.600Z,5.10
2018-08-16T00:30:02.735Z,4.80
2018-08-16T00:32:32.843Z,5.33
2018-08-16T00:35:03.864Z,5.70
2018-08-16T00:37:37.541Z,5.40
2018-08-16T00:40:13.641Z,5.77
2018-08-16T00:43:13.951Z,5.30
2018-08-16T00:46:04.202Z,5.30
2018-08-16T00:52:40.796Z,5.67
2018-08-16T00:55:11.744Z,5.20
2018-08-16T00:57:43.478Z,5.20
2018-08-16T01:00:16.592Z,5.77
2018-08-16T01:02:47.121Z,5.70
2018-08-16T01:05:18.581Z,5.33
2018-08-16T01:07:49.713Z,5.70
2018-08-16T01:10:45.982Z,5.83
2018-08-16T01:13:23.323Z,5.57
2018-08-16T01:15:54.353Z,5.57
2018-08-16T01:18:26.892Z,5.90
2018-08-16T01:20:56.805Z,5.80
2018-08-16T01:23:33.013Z,5.37
2018-08-16T01:26:02.881Z,5.77
2018-08-16T01:28:46.994Z,6.20
2018-08-16T01:31:29.391Z,6.00
2018-08-16T01:34:01.785Z,5.90
2018-08-16T01:36:38.095Z,5.60
2018-08-16T01:39:11.466Z,6.10
2018-08-16T01:41:42.067Z,5.80
2018-08-16T01:44:17.192Z,5.93
2018-08-16T01:51:01.724Z,5.93
2018-08-16T01:53:34.045Z,5.40
2018-08-16T01:56:06.612Z,5.83
2018-08-16T02:01:22.649Z,5.93
2018-08-16T03:23:58.586Z,6.60
2018-08-16T03:33:12.397Z,6.67
2018-08-16T03:38:51.184Z,7.10
2018-08-16T03:41:21.674Z,7.10
2018-08-16T03:43:51.449Z,7.37
2018-08-16T03:46:43.882Z,7.13
2018-08-16T03:49:13.570Z,6.77
2018-08-16T03:51:43.505Z,6.57
2018-08-16T03:54:23.009Z,6.67
2018-08-16T03:59:56.515Z,6.53
2018-08-16T04:06:09.222Z,7.40
2018-08-16T04:08:47.091Z,6.70
2018-08-16T04:11:17.231Z,7.53
2018-08-16T04:13:47.143Z,6.57
2018-08-16T04:16:19.231Z,7.40
2018-08-16T04:18:49.358Z,6.40
2018-08-16T04:21:22.156Z,6.77
2018-08-16T04:23:57.498Z,7.63
2018-08-16T04:26:29.188Z,6.97
2018-08-16T04:31:53.328Z,6.43
2018-08-16T04:34:45.177Z,6.77
2018-08-16T04:37:15.428Z,6.20
2018-08-16T04:39:46.275Z,7.43
2018-08-16T04:42:20.339Z,7.07
2018-08-16T04:50:23.036Z,7.47
2018-08-16T04:52:53.611Z,6.20
2018-08-16T04:55:25.047Z,6.83
2018-08-16T04:57:56.697Z,7.47
2018-08-16T05:00:26.860Z,6.70
2018-08-16T05:02:56.958Z,6.70
2018-08-16T05:05:28.112Z,6.90
2018-08-16T05:07:58.104Z,7.17
2018-08-16T05:10:34.548Z,7.20
2018-08-16T05:13:05.069Z,7.00
2018-08-16T05:15:36.568Z,6.83
2018-08-16T05:18:07.709Z,7.03
2018-08-16T05:20:41.363Z,6.40
2018-08-16T05:23:13.948Z,7.03
2018-08-16T05:25:49.075Z,6.33
2018-08-16T05:28:20.084Z,6.50
2018-08-16T05:30:51.602Z,6.77
2018-08-16T05:33:23.900Z,6.87
2018-08-16T05:35:55.293Z,6.97
2018-08-16T05:38:29.642Z,6.43
2018-08-16T05:40:59.873Z,6.37
2018-08-16T05:43:29.898Z,6.37
2018-08-16T05:45:59.598Z,6.17
2018-08-16T05:48:29.544Z,6.33
2018-08-16T05:50:59.327Z,6.13
2018-08-16T05:53:31.433Z,6.73
2018-08-16T05:56:01.058Z,6.57
2018-08-16T05:58:31.544Z,6.30
2018-08-16T06:01:01.403Z,5.37
2018-08-16T06:03:37.127Z,5.70
2018-08-16T06:06:07.963Z,6.07
2018-08-16T06:08:38.304Z,5.77
2018-08-16T06:11:09.075Z,5.87
2018-08-16T06:13:40.205Z,6.13
2018-08-16T06:16:09.880Z,5.60
2018-08-16T06:18:42.516Z,6.07
2018-08-16T06:21:12.327Z,5.80
2018-08-16T06:23:42.201Z,5.53
2018-08-16T06:26:11.947Z,8.70
2018-08-16T06:28:41.700Z,8.23
2018-08-16T06:31:11.649Z,6.43
2018-08-16T06:33:42.305Z,7.13
2018-08-16T06:36:11.910Z,7.80
2018-08-16T06:38:41.978Z,6.73
2018-08-16T06:41:12.276Z,6.10
2018-08-16T06:43:41.964Z,5.80
2018-08-16T06:46:12.782Z,6.67
2018-08-16T06:48:42.657Z,5.77
2018-08-16T06:51:12.436Z,7.30
2018-08-16T06:53:42.382Z,5.97
2018-08-16T06:56:12.816Z,5.53
2018-08-16T06:58:42.492Z,5.17
2018-08-16T07:01:12.197Z,5.93
2018-08-16T07:04:35.455Z,4.53
2018-08-16T07:07:06.945Z,6.03
2018-08-16T07:09:36.863Z,4.80
2018-08-16T07:12:09.571Z,4.90
2018-08-16T07:14:39.715Z,5.47
2018-08-16T07:17:10.165Z,4.40
2018-08-16T07:19:39.978Z,4.73
2018-08-16T07:22:12.576Z,4.30
2018-08-16T07:24:42.210Z,4.77
2018-08-16T07:27:12.103Z,4.60
2018-08-16T07:29:43.499Z,4.70
2018-08-16T07:32:13.369Z,4.70
2018-08-16T07:34:42.976Z,4.03
2018-08-16T07:37:14.189Z,4.47
2018-08-16T07:39:44.325Z,4.10
2018-08-16T07:42:13.936Z,4.37
2018-08-16T07:44:43.571Z,4.47
2018-08-16T07:47:14.787Z,4.20
2018-08-16T07:49:44.632Z,4.07
2018-08-16T07:52:14.524Z,4.00
2018-08-16T07:54:44.151Z,4.40
2018-08-16T07:57:13.981Z,3.60
2018-08-16T07:59:44.768Z,4.17
2018-08-16T08:02:16.132Z,3.90
2018-08-16T08:05:01.284Z,4.63
2018-08-16T08:07:31.180Z,3.90
2018-08-16T08:10:00.850Z,3.70
2018-08-16T08:12:30.778Z,3.70
2018-08-16T08:15:00.488Z,3.67
2018-08-16T08:17:30.462Z,3.37
2018-08-16T08:20:02.288Z,3.63
2018-08-16T08:22:32.303Z,3.37
2018-08-16T08:25:02.026Z,3.30
2018-08-16T08:27:32.079Z,3.23
2018-08-16T08:30:02.364Z,2.93
2018-08-16T08:32:34.556Z,2.77
2018-08-16T08:35:04.922Z,3.13
2018-08-16T08:37:46.934Z,2.87
2018-08-16T08:40:16.872Z,2.83
2018-08-16T08:42:48.290Z,2.40
2018-08-16T08:45:23.081Z,2.80
2018-08-16T08:47:57.688Z,2.67
2018-08-16T08:50:27.761Z,2.77
2018-08-16T08:53:08.352Z,2.27
2018-08-16T08:55:51.239Z,2.33
2018-08-16T08:58:31.784Z,2.20
2018-08-16T09:01:01.296Z,2.50
2018-08-16T09:03:31.803Z,2.10
2018-08-16T09:06:01.421Z,2.60
2018-08-16T09:08:31.117Z,2.40
2018-08-16T09:11:16.108Z,2.40
2018-08-16T09:13:59.133Z,2.67
2018-08-16T09:16:30.687Z,2.40
2018-08-16T09:19:00.591Z,2.27
2018-08-16T09:21:30.976Z,2.10
2018-08-16T09:24:00.722Z,2.37
2018-08-16T09:26:35.910Z,1.93
2018-08-16T09:31:18.832Z,2.13
2018-08-16T09:34:01.695Z,2.30
2018-08-16T09:37:30.420Z,2.43
2018-08-16T09:40:01.324Z,2.10
2018-08-16T09:42:31.176Z,1.90
2018-08-16T09:45:11.771Z,1.90
2018-08-16T09:47:54.523Z,2.30
2018-08-16T09:50:24.139Z,1.80
2018-08-16T09:52:54.213Z,1.70
2018-08-16T09:55:27.757Z,2.00
2018-08-16T09:57:58.655Z,1.80
2018-08-16T10:00:34.117Z,2.10
2018-08-16T10:03:03.904Z,2.10
2018-08-16T10:05:34.111Z,1.70
2018-08-16T10:08:04.093Z,1.90
2018-08-16T10:10:34.201Z,1.93
2018-08-16T10:13:03.979Z,1.90
2018-08-16T10:15:33.795Z,1.90
2018-08-16T10:18:03.609Z,1.93
2018-08-16T10:20:33.699Z,1.83
2018-08-16T10:23:03.692Z,1.93
2018-08-16T10:25:33.364Z,1.80
2018-08-16T10:28:03.045Z,1.97
2018-08-16T10:30:33.208Z,2.30
2018-08-16T10:33:03.623Z,2.00
2018-08-16T10:35:33.524Z,2.20
2018-08-16T10:38:04.010Z,1.90
2018-08-16T10:40:34.540Z,2.27
2018-08-16T10:43:05.321Z,2.30
2018-08-16T10:45:35.382Z,2.33
2018-08-16T10:48:04.998Z,2.20
2018-08-16T10:50:36.804Z,1.93
2018-08-16T10:53:06.540Z,1.93
2018-08-16T10:55:36.434Z,1.90
2018-08-16T10:58:08.555Z,2.03
2018-08-16T11:00:42.542Z,2.00
2018-08-16T11:03:12.329Z,2.10
2018-08-16T11:05:42.335Z,2.10
2018-08-16T11:08:12.086Z,1.90
2018-08-16T11:10:42.555Z,2.23
2018-08-16T11:13:12.549Z,1.80
2018-08-16T11:18:16.859Z,1.90
2018-08-16T11:20:46.717Z,2.10
2018-08-16T11:23:18.155Z,2.00
2018-08-16T11:25:47.831Z,1.87
2018-08-16T11:28:17.575Z,1.97
2018-08-16T11:30:47.776Z,1.90
2018-08-16T11:33:18.053Z,1.87
2018-08-16T11:35:55.673Z,1.80
2018-08-16T11:38:25.439Z,2.17
2018-08-16T11:40:55.440Z,1.83
2018-08-16T11:43:25.420Z,2.00
2018-08-16T11:45:55.820Z,1.77
2018-08-16T11:48:30.540Z,2.43
2018-08-16T11:51:00.458Z,1.77
2018-08-16T11:53:30.384Z,1.87
2018-08-16T11:56:00.104Z,1.60
2018-08-16T11:58:34.007Z,2.37
2018-08-16T12:01:03.741Z,2.10
2018-08-16T12:06:13.375Z,2.00
2018-08-16T12:08:44.388Z,1.90
2018-08-16T12:11:18.691Z,1.80
2018-08-16T12:13:48.600Z,2.07
2018-08-16T12:16:18.906Z,1.97
2018-08-16T12:18:49.356Z,1.73
2018-08-16T12:21:20.033Z,1.80
2018-08-16T12:23:52.539Z,2.00
2018-08-16T12:26:22.495Z,2.30
2018-08-16T12:28:52.124Z,1.97
2018-08-16T12:31:22.430Z,2.03
2018-08-16T12:33:52.766Z,1.77
2018-08-16T12:36:28.032Z,1.90
2018-08-16T12:38:58.142Z,1.80
2018-08-16T12:41:28.216Z,1.97
2018-08-16T12:43:58.182Z,1.63
2018-08-16T12:46:28.161Z,1.73
2018-08-16T12:48:57.938Z,1.60
2018-08-16T12:51:29.320Z,1.97
2018-08-16T12:54:02.687Z,1.90
2018-08-16T12:56:37.067Z,1.87
2018-08-16T12:59:07.364Z,2.00
2018-08-16T13:01:39.968Z,1.70
2018-08-16T13:04:37.928Z,2.00
2018-08-16T13:07:07.631Z,1.80
2018-08-16T13:09:56.291Z,2.00
2018-08-16T13:12:30.047Z,2.10
2018-08-16T13:15:02.955Z,2.03
2018-08-16T13:17:34.150Z,1.83
2018-08-16T13:20:04.232Z,2.00
2018-08-16T13:22:39.013Z,2.10
2018-08-16T13:25:09.440Z,1.80
2018-08-16T13:27:39.552Z,1.77
2018-08-16T13:30:09.723Z,1.80
2018-08-16T13:32:40.075Z,1.93
2018-08-16T13:35:09.837Z,2.00
2018-08-16T13:37:41.955Z,1.70
2018-08-16T13:40:12.143Z,1.80
2018-08-16T13:42:41.952Z,2.00
2018-08-16T13:45:12.405Z,1.87
2018-08-16T13:47:42.653Z,1.83
2018-08-16T13:50:13.174Z,1.60
2018-08-16T13:52:51.387Z,1.73
2018-08-16T13:55:21.824Z,1.70
2018-08-16T13:57:51.450Z,1.40
2018-08-16T14:00:31.262Z,1.90
2018-08-16T14:03:03.289Z,1.77
2018-08-16T14:05:33.317Z,1.60
2018-08-16T14:08:04.966Z,1.83
2018-08-16T14:10:35.359Z,1.60
2018-08-16T14:13:10.205Z,1.80
2018-08-16T14:15:40.908Z,1.53
2018-08-16T14:18:16.942Z,2.00
2018-08-16T14:20:54.736Z,1.60
2018-08-16T14:23:27.602Z,1.80
2018-08-16T14:26:00.105Z,2.10
2018-08-16T14:28:30.233Z,1.80
2018-08-16T14:31:05.074Z,1.93
2018-08-16T14:33:39.749Z,1.80
2018-08-16T14:36:09.724Z,1.70
2018-08-16T14:38:39.904Z,1.57
2018-08-16T14:41:09.701Z,2.27
2018-08-16T14:43:39.617Z,1.60
2018-08-16T14:46:10.116Z,2.10
2018-08-16T14:48:42.583Z,1.90
2018-08-16T14:51:12.430Z,1.90
2018-08-16T14:53:42.147Z,1.87
2018-08-16T14:56:12.525Z,1.83
2018-08-16T14:58:42.581Z,1.70
2018-08-16T15:01:13.446Z,2.43
2018-08-16T15:10:23.747Z,1.90
2018-08-16T15:12:53.951Z,1.80
2018-08-16T15:18:17.351Z,1.90
2018-08-16T15:20:47.678Z,1.73
2018-08-16T15:23:18.643Z,1.90
2018-08-16T15:25:48.250Z,1.40
2018-08-16T15:28:19.143Z,2.17
2018-08-16T15:30:56.129Z,1.73
2018-08-16T15:33:26.448Z,1.80
2018-08-16T15:35:56.840Z,1.90
2018-08-16T15:38:27.150Z,1.80
2018-08-16T15:41:00.693Z,1.80
2018-08-16T15:43:34.864Z,1.80
2018-08-16T15:46:05.075Z,2.00
2018-08-16T15:48:35.379Z,2.50
2018-08-16T15:51:05.455Z,1.90
2018-08-16T15:53:35.304Z,1.93
2018-08-16T15:56:05.235Z,2.30
2018-08-16T15:58:35.486Z,2.23
2018-08-16T16:01:05.224Z,1.73
2018-08-16T16:03:35.556Z,1.80
2018-08-16T16:06:05.616Z,1.80
2018-08-16T16:08:37.310Z,1.70
2018-08-16T16:11:09.211Z,2.30
2018-08-16T16:13:40.577Z,1.70
2018-08-16T16:16:10.751Z,1.70
2018-08-16T16:18:40.610Z,2.20
2018-08-16T16:21:10.363Z,1.90
2018-08-16T16:23:40.381Z,1.97
2018-08-16T16:26:10.350Z,1.67
2018-08-16T16:28:40.176Z,2.07
2018-08-16T16:31:10.217Z,1.80
2018-08-16T16:33:42.634Z,2.00
2018-08-16T16:36:20.028Z,1.50
2018-08-16T16:38:49.714Z,2.07
2018-08-16T16:41:22.374Z,2.50
2018-08-16T16:43:52.333Z,2.17
2018-08-16T16:46:26.979Z,1.90
2018-08-16T16:48:57.054Z,2.10
2018-08-16T16:54:22.298Z,2.50
2018-08-16T16:56:53.118Z,2.37
2018-08-16T16:59:23.551Z,2.50
2018-08-16T17:02:01.453Z,2.37
2018-08-16T17:04:31.840Z,3.10
2018-08-16T17:07:06.441Z,2.10
2018-08-16T17:09:37.038Z,2.17
2018-08-16T17:12:13.391Z,2.10
2018-08-16T17:14:43.307Z,1.97
2018-08-16T17:17:14.924Z,1.90
2018-08-16T17:22:43.439Z,2.20
2018-08-16T17:25:14.622Z,2.03
2018-08-16T17:29:59.911Z,2.37
2018-08-16T17:32:30.794Z,2.00
2018-08-16T17:35:01.175Z,1.87
2018-08-16T17:37:32.954Z,2.10
2018-08-16T17:40:05.847Z,2.40
2018-08-16T17:42:37.833Z,1.90
2018-08-16T17:45:10.030Z,2.10
2018-08-16T17:47:42.657Z,2.00
2018-08-16T17:50:13.299Z,2.10
2018-08-16T17:52:43.823Z,2.40
2018-08-16T17:55:19.386Z,2.27
2018-08-16T17:57:49.348Z,2.27
2018-08-16T18:00:20.728Z,2.60
2018-08-16T18:02:53.654Z,2.10
2018-08-16T18:05:26.153Z,2.20
2018-08-16T18:07:56.029Z,2.40
2018-08-16T18:10:32.043Z,2.17
2018-08-16T18:13:03.204Z,2.00
2018-08-16T18:15:33.362Z,2.00
2018-08-16T18:18:06.881Z,2.27
2018-08-16T18:20:36.804Z,2.03
2018-08-16T18:23:06.856Z,2.10
2018-08-16T18:25:37.397Z,2.30
2018-08-16T18:28:46.314Z,1.90
2018-08-16T18:31:16.622Z,2.03
2018-08-16T18:33:47.097Z,2.20
2018-08-16T18:36:17.399Z,2.13
2018-08-16T18:38:47.599Z,2.23
2018-08-16T18:41:17.395Z,2.33
2018-08-16T18:43:52.586Z,2.40
2018-08-16T18:46:24.411Z,2.60
2018-08-16T18:48:56.977Z,2.53
2018-08-16T18:51:28.108Z,2.43
2018-08-16T18:53:59.869Z,2.13
2018-08-16T18:56:29.593Z,2.67
2018-08-16T18:59:00.217Z,2.10
2018-08-16T19:01:31.013Z,1.97
2018-08-16T19:04:28.579Z,2.00
2018-08-16T19:06:58.624Z,2.20
2018-08-16T19:09:28.590Z,2.23
2018-08-16T19:11:59.026Z,2.00
2018-08-16T19:14:30.585Z,2.30
2018-08-16T19:17:00.595Z,2.50
2018-08-16T19:19:31.616Z,2.17
2018-08-16T19:22:02.383Z,2.43
2018-08-16T19:24:34.590Z,2.50
2018-08-16T19:27:05.287Z,2.20
2018-08-16T19:29:38.530Z,2.10
2018-08-16T19:32:09.136Z,2.47
2018-08-16T19:34:39.930Z,2.07
2018-08-16T19:37:11.346Z,2.80
2018-08-16T19:39:42.322Z,2.80
2018-08-16T19:42:13.406Z,3.03
2018-08-16T19:44:47.141Z,2.50
2018-08-16T19:47:26.056Z,3.33
2018-08-16T19:49:58.862Z,3.00
2018-08-16T19:52:29.198Z,2.87
2018-08-16T19:54:59.834Z,3.20
2018-08-16T19:57:31.354Z,2.87
2018-08-16T20:00:01.653Z,2.67
2018-08-16T20:02:32.100Z,2.67
2018-08-16T20:05:02.675Z,2.93
2018-08-16T20:07:32.956Z,2.67
2018-08-16T20:10:03.510Z,3.00
2018-08-16T20:12:43.306Z,2.70
2018-08-16T20:15:14.086Z,6.73
2018-08-16T20:17:44.327Z,4.00
2018-08-16T20:20:14.431Z,2.93
2018-08-16T20:23:59.174Z,2.67
2018-08-16T20:26:30.077Z,3.27
2018-08-16T20:29:02.516Z,2.87
2018-08-16T20:31:33.776Z,2.50
2018-08-16T20:34:04.076Z,2.50
2018-08-16T20:36:36.128Z,2.43
2018-08-16T20:39:10.559Z,2.40
2018-08-16T20:41:41.210Z,3.70
2018-08-16T20:44:11.068Z,3.77
2018-08-16T20:46:43.851Z,2.80
2018-08-16T20:49:17.561Z,2.43
2018-08-16T20:51:50.641Z,2.70
2018-08-16T20:54:24.847Z,2.97
2018-08-16T20:56:54.679Z,2.87
2018-08-16T20:59:25.143Z,3.13
2018-08-16T21:02:03.504Z,3.03
2018-08-16T21:04:33.917Z,3.63
2018-08-16T21:07:15.138Z,2.90
2018-08-16T21:09:45.099Z,3.00
2018-08-16T21:12:16.480Z,3.23
2018-08-16T21:14:46.919Z,3.07
2018-08-16T21:17:16.647Z,3.30
2018-08-16T21:19:46.826Z,3.40
2018-08-16T21:22:16.748Z,2.87
2018-08-16T21:24:48.007Z,4.13
2018-08-16T21:27:18.727Z,3.30
2018-08-16T21:29:56.970Z,3.50
2018-08-16T21:32:27.627Z,3.93
2018-08-16T21:35:01.054Z,3.43
2018-08-16T21:37:40.645Z,3.20
2018-08-16T21:40:12.178Z,3.80
2018-08-16T21:42:43.949Z,3.60
2018-08-16T21:45:15.379Z,3.40
2018-08-16T21:47:52.321Z,3.70
2018-08-16T21:50:22.383Z,3.40
2018-08-16T21:52:53.185Z,3.20
2018-08-16T21:55:24.422Z,3.70
2018-08-16T21:57:56.613Z,3.40
2018-08-16T22:00:39.498Z,3.47
2018-08-16T22:03:20.110Z,3.20
2018-08-16T22:06:12.964Z,3.67
2018-08-16T22:08:53.764Z,3.70
2018-08-16T22:11:34.813Z,3.30
2018-08-16T22:14:12.242Z,3.53
2018-08-16T22:19:26.375Z,3.87
2018-08-16T22:21:58.438Z,3.47
2018-08-16T22:24:30.338Z,3.87
2018-08-16T22:27:08.033Z,3.23
2018-08-16T22:29:38.992Z,3.30
2018-08-16T22:32:12.438Z,3.40
2018-08-16T22:34:59.627Z,3.77
2018-08-16T22:37:30.170Z,4.10
2018-08-16T22:40:04.288Z,3.80
2018-08-16T22:42:40.426Z,3.27
2018-08-16T22:45:12.689Z,3.40
2018-08-16T22:47:44.444Z,3.83
2018-08-16T22:50:18.671Z,4.03
2018-08-16T22:53:05.902Z,4.03
2018-08-16T22:55:43.920Z,3.30
2018-08-16T22:58:16.526Z,3.67
2018-08-16T23:00:48.249Z,3.70
2018-08-16T23:03:21.533Z,3.53
2018-08-16T23:05:57.927Z,3.60
2018-08-16T23:08:34.232Z,3.93
2018-08-16T23:11:07.562Z,3.63
2018-08-16T23:13:41.947Z,3.67
2018-08-16T23:16:17.063Z,3.80
2018-08-16T23:18:49.123Z,3.63
2018-08-16T23:21:28.474Z,3.47
2018-08-16T23:24:04.843Z,3.27
2018-08-16T23:26:37.002Z,3.60
2018-08-16T23:29:12.813Z,3.40
2018-08-16T23:31:43.870Z,3.90
2018-08-16T23:34:15.800Z,3.77
2018-08-16T23:36:47.488Z,3.80
2018-08-16T23:39:27.982Z,3.73
2018-08-16T23:42:01.082Z,3.87
2018-08-16T23:44:34.423Z,3.63
2018-08-16T23:47:11.554Z,3.50
2018-08-16T23:49:45.720Z,3.30
2018-08-16T23:52:17.483Z,3.80
2018-08-16T23:54:50.933Z,3.43
2018-08-16T23:57:25.761Z,3.80
2018-08-16T23:59:59.773Z,4.03
